createdAt,value
2018-04-22T00:01:55.014Z,99.90
2018-04-22T00:04:22.475Z,99.90
2018-04-22T00:06:49.943Z,99.90
2018-04-22T00:09:18.195Z,99.90
2018-04-22T00:11:46.214Z,99.90
2018-04-22T00:14:13.669Z,99.90
2018-04-22T00:16:41.127Z,99.90
2018-04-22T00:19:08.584Z,99.90
2018-04-22T00:21:36.054Z,99.90
2018-04-22T00:24:03.533Z,99.90
2018-04-22T00:26:30.990Z,99.90
2018-04-22T00:28:58.444Z,99.70
2018-04-22T00:31:25.904Z,99.90
2018-04-22T00:33:53.377Z,99.90
2018-04-22T00:36:20.835Z,99.90
2018-04-22T00:38:48.297Z,99.90
2018-04-22T00:41:15.751Z,99.90
2018-04-22T00:43:43.222Z,99.90
2018-04-22T00:46:10.670Z,99.90
2018-04-22T00:48:38.134Z,99.90
2018-04-22T00:51:05.583Z,99.90
2018-04-22T00:53:44.808Z,99.90
2018-04-22T00:56:12.269Z,99.90
2018-04-22T00:58:39.721Z,99.90
2018-04-22T01:01:07.178Z,99.90
2018-04-22T01:03:34.637Z,99.90
2018-04-22T01:06:02.094Z,99.90
2018-04-22T01:08:29.560Z,99.90
2018-04-22T01:10:57.001Z,99.90
2018-04-22T01:13:24.469Z,99.90
2018-04-22T01:15:51.905Z,99.90
2018-04-22T01:18:19.375Z,99.90
2018-04-22T01:20:46.831Z,99.90
2018-04-22T01:23:14.278Z,99.90
2018-04-22T01:25:41.737Z,99.90
2018-04-22T01:28:09.194Z,99.90
2018-04-22T01:30:36.651Z,99.90
2018-04-22T01:33:04.109Z,99.90
2018-04-22T01:35:31.549Z,99.90
2018-04-22T01:37:59.041Z,99.90
2018-04-22T01:40:26.507Z,99.90
2018-04-22T01:42:53.951Z,99.90
2018-04-22T01:45:21.406Z,99.90
2018-04-22T01:47:48.866Z,99.90
2018-04-22T01:50:16.320Z,99.90
2018-04-22T01:52:43.759Z,99.90
2018-04-22T01:55:11.232Z,99.90
2018-04-22T01:57:38.666Z,99.90
2018-04-22T02:00:06.121Z,99.90
2018-04-22T02:02:33.582Z,99.90
2018-04-22T02:05:01.037Z,99.90
2018-04-22T02:07:28.491Z,99.90
2018-04-22T02:09:55.969Z,99.90
2018-04-22T02:12:23.427Z,99.90
2018-04-22T02:14:50.890Z,99.90
2018-04-22T02:17:18.354Z,99.90
2018-04-22T02:19:45.808Z,99.90
2018-04-22T02:22:13.258Z,99.90
2018-04-22T02:24:40.719Z,99.90
2018-04-22T02:27:08.195Z,99.90
2018-04-22T02:29:35.631Z,99.90
2018-04-22T02:32:03.087Z,99.90
2018-04-22T02:34:31.309Z,99.90
2018-04-22T02:36:59.963Z,99.90
2018-04-22T02:39:27.418Z,99.90
2018-04-22T02:41:54.862Z,99.90
2018-04-22T02:44:22.324Z,99.30
2018-04-22T02:46:49.773Z,99.90
2018-04-22T02:49:17.221Z,99.90
2018-04-22T02:51:44.696Z,99.90
2018-04-22T02:54:12.151Z,99.90
2018-04-22T02:56:39.601Z,99.90
2018-04-22T02:59:07.057Z,99.90
2018-04-22T03:01:34.502Z,99.90
2018-04-22T03:04:01.965Z,99.90
2018-04-22T03:06:29.687Z,99.90
2018-04-22T03:08:57.140Z,99.90
2018-04-22T03:11:24.647Z,99.90
2018-04-22T03:13:52.105Z,99.90
2018-04-22T03:16:19.558Z,99.90
2018-04-22T03:18:47.023Z,99.90
2018-04-22T03:21:14.481Z,99.90
2018-04-22T03:23:41.933Z,99.90
2018-04-22T03:26:09.394Z,99.90
2018-04-22T03:28:36.846Z,99.90
2018-04-22T03:31:04.309Z,99.90
2018-04-22T03:33:31.754Z,99.90
2018-04-22T03:35:59.214Z,99.90
2018-04-22T03:38:26.678Z,99.90
2018-04-22T03:40:54.134Z,99.90
2018-04-22T03:43:21.585Z,99.90
2018-04-22T03:45:49.097Z,99.90
2018-04-22T03:48:17.318Z,99.90
2018-04-22T03:50:44.774Z,99.90
2018-04-22T03:53:12.238Z,99.90
2018-04-22T03:55:39.714Z,99.90
2018-04-22T03:58:07.145Z,99.90
2018-04-22T04:00:34.610Z,99.90
2018-04-22T04:03:02.061Z,99.90
2018-04-22T04:05:29.513Z,99.90
2018-04-22T04:07:57.760Z,99.90
2018-04-22T04:10:25.979Z,99.90
2018-04-22T04:12:53.434Z,99.90
2018-04-22T04:15:20.897Z,99.90
2018-04-22T04:21:18.975Z,99.90
2018-04-22T04:27:25.076Z,99.90
2018-04-22T04:29:52.541Z,99.90
2018-04-22T04:32:19.997Z,99.90
2018-04-22T04:34:47.447Z,99.90
2018-04-22T04:37:14.901Z,99.90
2018-04-22T04:39:42.350Z,99.90
2018-04-22T04:42:09.824Z,99.90
2018-04-22T04:44:37.256Z,99.90
2018-04-22T04:47:04.720Z,99.90
2018-04-22T04:49:32.173Z,99.90
2018-04-22T04:51:59.633Z,99.90
2018-04-22T04:54:27.092Z,99.90
2018-04-22T04:56:54.575Z,99.90
2018-04-22T04:59:22.032Z,99.90
2018-04-22T05:01:49.506Z,99.90
2018-04-22T05:04:16.967Z,99.90
2018-04-22T05:06:44.427Z,99.90
2018-04-22T05:09:11.879Z,99.90
2018-04-22T05:11:39.361Z,99.90
2018-04-22T05:14:07.573Z,99.90
2018-04-22T05:16:35.046Z,99.90
2018-04-22T05:19:02.499Z,99.90
2018-04-22T05:21:29.946Z,99.90
2018-04-22T05:23:57.388Z,99.90
2018-04-22T05:26:24.852Z,99.90
2018-04-22T05:28:52.301Z,99.90
2018-04-22T05:31:19.759Z,99.90
2018-04-22T05:33:47.222Z,99.90
2018-04-22T05:36:14.674Z,99.90
2018-04-22T05:38:42.131Z,99.90
2018-04-22T05:41:09.599Z,99.90
2018-04-22T05:43:37.045Z,99.90
2018-04-22T05:46:04.486Z,99.90
2018-04-22T05:48:31.957Z,99.90
2018-04-22T05:50:59.397Z,99.90
2018-04-22T05:53:26.870Z,99.90
2018-04-22T05:55:54.310Z,99.90
2018-04-22T05:58:21.786Z,99.90
2018-04-22T06:00:49.222Z,99.90
2018-04-22T06:03:16.683Z,99.90
2018-04-22T06:05:44.938Z,99.00
2018-04-22T06:08:12.413Z,98.90
2018-04-22T06:10:39.881Z,99.20
2018-04-22T06:13:08.112Z,95.20
2018-04-22T06:15:35.569Z,95.20
2018-04-22T06:18:03.041Z,97.20
2018-04-22T06:20:30.511Z,98.70
2018-04-22T06:22:58.739Z,96.70
2018-04-22T06:25:26.178Z,96.60
2018-04-22T06:27:53.642Z,94.00
2018-04-22T06:30:21.091Z,92.60
2018-04-22T06:32:48.544Z,91.30
2018-04-22T06:35:16.013Z,91.30
2018-04-22T06:37:43.502Z,92.00
2018-04-22T06:40:10.994Z,92.30
2018-04-22T06:42:38.421Z,90.60
2018-04-22T06:45:05.876Z,91.60
2018-04-22T06:47:33.378Z,90.70
2018-04-22T06:50:00.825Z,87.90
2018-04-22T06:52:29.066Z,84.30
2018-04-22T06:54:56.518Z,83.90
2018-04-22T06:57:23.998Z,83.50
2018-04-22T06:59:51.458Z,81.80
2018-04-22T07:02:18.946Z,84.30
2018-04-22T07:04:47.168Z,87.20
2018-04-22T07:07:14.637Z,87.20
2018-04-22T07:09:42.138Z,89.60
2018-04-22T07:12:09.597Z,82.40
2018-04-22T07:14:37.055Z,79.50
2018-04-22T07:17:04.522Z,76.00
2018-04-22T07:19:31.973Z,72.00
2018-04-22T07:21:59.425Z,72.70
2018-04-22T07:24:26.872Z,69.10
2018-04-22T07:26:54.325Z,66.50
2018-04-22T07:29:22.547Z,76.90
2018-04-22T07:31:49.994Z,76.80
2018-04-22T07:34:17.442Z,72.70
2018-04-22T07:36:44.897Z,69.10
2018-04-22T07:39:12.355Z,67.60
2018-04-22T07:41:39.813Z,66.20
2018-04-22T07:44:07.271Z,76.60
2018-04-22T07:46:34.710Z,75.90
2018-04-22T07:49:02.171Z,80.00
2018-04-22T07:51:29.627Z,79.60
2018-04-22T07:53:57.078Z,78.70
2018-04-22T07:56:24.520Z,74.00
2018-04-22T07:58:52.738Z,67.30
2018-04-22T08:01:20.192Z,67.00
2018-04-22T08:03:47.651Z,68.80
2018-04-22T08:06:15.090Z,65.50
2018-04-22T08:08:42.541Z,67.00
2018-04-22T08:11:09.990Z,64.40
2018-04-22T08:13:38.211Z,69.70
2018-04-22T08:16:05.664Z,70.80
2018-04-22T08:18:33.146Z,72.60
2018-04-22T08:21:00.588Z,68.80
2018-04-22T08:23:28.036Z,67.40
2018-04-22T08:25:55.476Z,61.80
2018-04-22T08:28:22.971Z,57.30
2018-04-22T08:30:50.380Z,56.50
2018-04-22T08:33:17.887Z,61.50
2018-04-22T08:35:46.077Z,57.00
2018-04-22T08:38:13.542Z,57.00
2018-04-22T08:40:41.746Z,55.40
2018-04-22T08:43:09.210Z,55.80
2018-04-22T08:45:36.653Z,53.50
2018-04-22T08:48:04.119Z,54.20
2018-04-22T08:50:31.554Z,54.90
2018-04-22T08:52:59.782Z,51.50
2018-04-22T08:55:27.238Z,51.50
2018-04-22T08:57:54.699Z,50.20
2018-04-22T09:00:22.146Z,50.10
2018-04-22T09:02:49.605Z,48.90
2018-04-22T09:05:17.062Z,47.90
2018-04-22T09:07:44.550Z,46.80
2018-04-22T09:10:11.990Z,45.30
2018-04-22T09:12:39.441Z,47.10
2018-04-22T09:15:06.904Z,46.50
2018-04-22T09:17:34.350Z,43.70
2018-04-22T09:20:01.804Z,44.20
2018-04-22T09:22:29.263Z,45.80
2018-04-22T09:24:56.695Z,49.00
2018-04-22T09:27:24.206Z,47.00
2018-04-22T09:29:51.661Z,44.20
2018-04-22T09:32:19.110Z,43.20
2018-04-22T09:34:46.562Z,42.30
2018-04-22T09:37:14.018Z,43.60
2018-04-22T09:39:41.472Z,42.00
2018-04-22T09:42:08.918Z,41.00
2018-04-22T09:44:36.364Z,40.70
2018-04-22T09:47:03.813Z,40.30
2018-04-22T09:49:31.254Z,39.50
2018-04-22T09:51:58.701Z,39.60
2018-04-22T09:54:26.912Z,39.10
2018-04-22T09:56:54.372Z,39.20
2018-04-22T09:59:21.829Z,39.60
2018-04-22T10:01:49.322Z,38.70
2018-04-22T10:04:16.780Z,38.00
2018-04-22T10:06:44.229Z,37.50
2018-04-22T10:09:11.710Z,37.20
2018-04-22T10:11:39.931Z,37.40
2018-04-22T10:14:07.390Z,37.40
2018-04-22T10:16:34.910Z,40.50
2018-04-22T10:19:02.309Z,36.70
2018-04-22T10:21:29.759Z,36.60
2018-04-22T10:23:57.219Z,37.00
2018-04-22T10:26:25.442Z,30.90
2018-04-22T10:28:52.902Z,30.70
2018-04-22T10:31:21.124Z,30.10
2018-04-22T10:33:48.580Z,30.10
2018-04-22T10:36:16.021Z,29.70
2018-04-22T10:38:43.478Z,31.10
2018-04-22T10:41:10.902Z,29.60
2018-04-22T10:43:38.358Z,30.00
2018-04-22T10:46:06.561Z,32.10
2018-04-22T10:48:34.016Z,32.00
2018-04-22T10:51:01.467Z,29.10
2018-04-22T10:53:28.924Z,28.70
2018-04-22T10:55:56.365Z,28.50
2018-04-22T10:58:24.595Z,28.70
2018-04-22T11:00:52.032Z,28.70
2018-04-22T11:03:19.469Z,28.10
2018-04-22T11:05:46.935Z,27.90
2018-04-22T11:08:14.373Z,27.00
2018-04-22T11:10:42.616Z,25.10
2018-04-22T11:13:10.057Z,25.10
2018-04-22T11:15:37.508Z,25.30
2018-04-22T11:18:04.963Z,25.50
2018-04-22T11:20:32.421Z,25.00
2018-04-22T11:22:59.876Z,24.70
2018-04-22T11:25:27.354Z,22.30
2018-04-22T11:27:54.797Z,23.60
2018-04-22T11:30:22.273Z,23.80
2018-04-22T11:32:49.726Z,22.80
2018-04-22T11:35:17.193Z,23.60
2018-04-22T11:37:44.638Z,22.70
2018-04-22T11:40:12.090Z,20.80
2018-04-22T11:42:39.537Z,21.50
2018-04-22T11:45:06.997Z,23.10
2018-04-22T11:47:34.446Z,23.00
2018-04-22T11:50:01.910Z,22.50
2018-04-22T11:52:29.361Z,22.00
2018-04-22T11:54:56.848Z,23.10
2018-04-22T11:57:24.297Z,23.30
2018-04-22T11:59:51.751Z,24.20
2018-04-22T12:02:19.185Z,25.00
2018-04-22T12:04:46.643Z,24.70
2018-04-22T12:07:14.246Z,24.90
2018-04-22T12:09:41.686Z,23.70
2018-04-22T12:12:09.178Z,24.80
2018-04-22T12:14:36.725Z,24.20
2018-04-22T12:17:04.137Z,23.00
2018-04-22T12:19:31.596Z,23.90
2018-04-22T12:21:59.155Z,24.10
2018-04-22T12:24:26.615Z,24.20
2018-04-22T12:26:54.066Z,24.00
2018-04-22T12:29:21.569Z,24.40
2018-04-22T12:31:49.209Z,23.30
2018-04-22T12:34:16.843Z,24.10
2018-04-22T12:36:44.493Z,24.70
2018-04-22T12:39:12.798Z,24.90
2018-04-22T12:41:40.265Z,24.90
2018-04-22T12:44:07.715Z,26.30
2018-04-22T12:46:35.251Z,26.30
2018-04-22T12:49:02.715Z,25.90
2018-04-22T12:51:30.251Z,26.60
2018-04-22T12:53:57.751Z,27.00
2018-04-22T12:56:25.926Z,26.10
2018-04-22T12:58:53.377Z,26.10
2018-04-22T13:01:20.835Z,27.40
2018-04-22T13:03:48.293Z,28.20
2018-04-22T13:06:15.774Z,28.30
2018-04-22T13:08:43.238Z,27.80
2018-04-22T13:11:10.695Z,28.90
2018-04-22T13:13:38.160Z,29.80
2018-04-22T13:16:05.610Z,30.60
2018-04-22T13:18:33.100Z,31.70
2018-04-22T13:21:00.575Z,31.20
2018-04-22T13:23:28.033Z,30.10
2018-04-22T13:25:55.518Z,31.70
2018-04-22T13:28:22.972Z,32.40
2018-04-22T13:30:50.435Z,34.20
2018-04-22T13:33:17.893Z,34.80
2018-04-22T13:35:45.347Z,34.70
2018-04-22T13:38:12.794Z,33.50
2018-04-22T13:40:40.246Z,34.10
2018-04-22T13:43:07.731Z,33.50
2018-04-22T13:45:35.186Z,31.00
2018-04-22T13:48:02.650Z,28.40
2018-04-22T13:50:30.099Z,28.70
2018-04-22T13:52:57.573Z,29.90
2018-04-22T13:55:25.033Z,32.40
2018-04-22T13:57:52.541Z,33.80
2018-04-22T14:00:20.751Z,32.70
2018-04-22T14:02:48.212Z,32.70
2018-04-22T14:05:15.694Z,32.60
2018-04-22T14:07:43.910Z,31.50
2018-04-22T14:10:11.369Z,31.50
2018-04-22T14:12:38.839Z,31.30
2018-04-22T14:15:06.871Z,31.70
2018-04-22T14:17:34.338Z,32.50
2018-04-22T14:20:01.820Z,32.50
2018-04-22T14:22:29.263Z,32.50
2018-04-22T14:24:56.737Z,31.50
2018-04-22T14:27:24.298Z,31.00
2018-04-22T14:29:51.741Z,30.40
2018-04-22T14:32:19.275Z,30.70
2018-04-22T14:34:46.740Z,30.00
2018-04-22T14:37:14.231Z,30.20
2018-04-22T14:39:41.683Z,30.80
2018-04-22T14:42:09.137Z,31.20
2018-04-22T14:44:48.532Z,31.20
2018-04-22T14:47:16.007Z,32.10
2018-04-22T14:49:43.459Z,32.70
2018-04-22T14:52:10.957Z,32.90
2018-04-22T14:54:38.472Z,32.20
2018-04-22T14:57:05.950Z,31.60
2018-04-22T14:59:33.412Z,31.50
2018-04-22T15:02:00.879Z,32.10
2018-04-22T15:04:28.374Z,31.80
2018-04-22T15:06:55.848Z,29.80
2018-04-22T15:09:23.298Z,30.30
2018-04-22T15:11:51.558Z,32.30
2018-04-22T15:14:19.034Z,31.60
2018-04-22T15:16:47.292Z,31.80
2018-04-22T15:19:14.753Z,31.80
2018-04-22T15:21:42.227Z,32.10
2018-04-22T15:24:09.681Z,32.20
2018-04-22T15:26:37.159Z,31.60
2018-04-22T15:29:04.624Z,30.80
2018-04-22T15:31:32.099Z,30.50
2018-04-22T15:33:59.578Z,30.90
2018-04-22T15:36:27.026Z,29.70
2018-04-22T15:38:54.503Z,29.50
2018-04-22T15:41:21.961Z,29.70
2018-04-22T15:43:49.500Z,30.00
2018-04-22T15:46:16.941Z,29.50
2018-04-22T15:48:44.439Z,30.20
2018-04-22T15:51:11.980Z,30.80
2018-04-22T15:53:39.443Z,31.20
2018-04-22T15:56:06.961Z,31.40
2018-04-22T15:58:34.448Z,31.40
2018-04-22T16:01:01.944Z,32.30
2018-04-22T16:03:29.447Z,32.40
2018-04-22T16:05:56.946Z,31.90
2018-04-22T16:08:24.432Z,32.00
2018-04-22T16:10:51.912Z,32.90
2018-04-22T16:13:19.386Z,33.70
2018-04-22T16:15:46.860Z,33.60
2018-04-22T16:18:14.330Z,34.20
2018-04-22T16:20:41.798Z,34.50
2018-04-22T16:23:09.273Z,35.20
2018-04-22T16:25:37.499Z,35.00
2018-04-22T16:28:04.953Z,35.00
2018-04-22T16:30:32.411Z,35.20
2018-04-22T16:32:59.886Z,35.20
2018-04-22T16:35:27.368Z,35.70
2018-04-22T16:37:54.886Z,36.20
2018-04-22T16:40:22.378Z,36.70
2018-04-22T16:42:49.830Z,36.50
2018-04-22T16:45:17.286Z,37.10
2018-04-22T16:47:44.785Z,37.30
2018-04-22T16:50:12.291Z,37.40
2018-04-22T16:52:39.755Z,37.30
2018-04-22T16:55:07.231Z,37.70
2018-04-22T16:57:34.691Z,38.00
2018-04-22T17:00:02.940Z,38.10
2018-04-22T17:02:30.423Z,38.10
2018-04-22T17:04:58.671Z,38.80
2018-04-22T17:07:26.146Z,38.40
2018-04-22T17:09:53.627Z,39.10
2018-04-22T17:12:21.138Z,39.20
2018-04-22T17:14:48.601Z,39.00
2018-04-22T17:17:16.069Z,39.10
2018-04-22T17:19:43.575Z,39.30
2018-04-22T17:22:11.043Z,39.20
2018-04-22T17:24:38.515Z,39.80
2018-04-22T17:27:06.015Z,39.50
2018-04-22T17:29:33.493Z,39.60
2018-04-22T17:32:01.746Z,39.70
2018-04-22T17:34:29.236Z,39.70
2018-04-22T17:36:56.726Z,40.10
2018-04-22T17:39:24.213Z,40.10
2018-04-22T17:41:51.685Z,40.10
2018-04-22T17:44:19.225Z,39.70
2018-04-22T17:46:46.739Z,40.30
2018-04-22T17:49:14.287Z,40.00
2018-04-22T17:51:41.767Z,39.90
2018-04-22T17:54:09.268Z,39.90
2018-04-22T17:56:36.743Z,40.00
2018-04-22T17:59:04.246Z,40.20
2018-04-22T18:01:31.750Z,40.50
2018-04-22T18:03:59.298Z,40.50
2018-04-22T18:06:26.902Z,40.50
2018-04-22T18:08:54.383Z,40.60
2018-04-22T18:11:21.851Z,40.80
2018-04-22T18:13:49.355Z,41.20
2018-04-22T18:16:17.603Z,41.50
2018-04-22T18:18:45.123Z,41.50
2018-04-22T18:21:13.460Z,42.10
2018-04-22T18:23:41.747Z,42.60
2018-04-22T18:26:10.159Z,43.00
2018-04-22T18:28:38.888Z,43.00
2018-04-22T18:31:06.506Z,43.00
2018-04-22T18:33:35.248Z,42.90
2018-04-22T18:36:03.950Z,42.90
2018-04-22T18:38:32.255Z,42.90
2018-04-22T18:40:59.782Z,42.80
2018-04-22T18:43:28.252Z,44.00
2018-04-22T18:45:56.694Z,43.90
2018-04-22T18:48:30.903Z,43.90
2018-04-22T18:50:59.545Z,44.20
2018-04-22T18:53:27.264Z,44.40
2018-04-22T18:55:56.247Z,44.60
2018-04-22T18:58:26.506Z,44.80
2018-04-22T19:00:54.354Z,45.80
2018-04-22T19:03:22.689Z,45.30
2018-04-22T19:05:50.189Z,45.40
2018-04-22T19:08:17.654Z,45.90
2018-04-22T19:10:45.143Z,45.60
2018-04-22T19:13:13.375Z,46.50
2018-04-22T19:15:40.935Z,46.50
2018-04-22T19:18:08.398Z,46.70
2018-04-22T19:20:35.873Z,47.30
2018-04-22T19:23:03.371Z,48.10
2018-04-22T19:25:31.642Z,48.70
2018-04-22T19:27:59.112Z,48.60
2018-04-22T19:30:26.590Z,51.90
2018-04-22T19:32:54.050Z,49.90
2018-04-22T19:35:21.535Z,49.20
2018-04-22T19:37:49.005Z,49.10
2018-04-22T19:40:17.293Z,49.10
2018-04-22T19:42:44.694Z,49.60
2018-04-22T19:45:12.154Z,49.30
2018-04-22T19:47:39.589Z,49.20
2018-04-22T19:50:07.055Z,49.50
2018-04-22T19:52:34.551Z,49.30
2018-04-22T19:55:02.026Z,49.70
2018-04-22T19:57:30.232Z,50.20
2018-04-22T19:59:57.693Z,50.10
2018-04-22T20:02:25.125Z,50.40
2018-04-22T20:04:53.597Z,50.60
2018-04-22T20:07:21.050Z,50.50
2018-04-22T20:09:49.276Z,51.50
2018-04-22T20:12:16.768Z,51.40
2018-04-22T20:14:44.251Z,52.00
2018-04-22T20:17:12.458Z,52.20
2018-04-22T20:19:39.926Z,52.20
2018-04-22T20:22:07.352Z,52.70
2018-04-22T20:24:34.822Z,52.70
2018-04-22T20:27:02.257Z,54.20
2018-04-22T20:29:30.470Z,53.20
2018-04-22T20:31:57.939Z,53.20
2018-04-22T20:34:25.397Z,53.90
2018-04-22T20:36:52.870Z,57.00
2018-04-22T20:39:20.332Z,55.00
2018-04-22T20:41:47.806Z,57.40
2018-04-22T20:44:16.019Z,58.70
2018-04-22T20:46:43.469Z,58.50
2018-04-22T20:49:10.921Z,62.30
2018-04-22T20:51:38.374Z,63.70
2018-04-22T20:54:05.826Z,63.80
2018-04-22T20:56:33.273Z,60.80
2018-04-22T20:59:01.497Z,60.00
2018-04-22T21:01:28.966Z,60.00
2018-04-22T21:03:56.453Z,60.70
2018-04-22T21:06:24.680Z,63.40
2018-04-22T21:08:52.121Z,63.30
2018-04-22T21:11:19.581Z,61.20
2018-04-22T21:13:47.039Z,61.70
2018-04-22T21:16:14.495Z,61.90
2018-04-22T21:18:41.954Z,62.00
2018-04-22T21:21:09.477Z,65.20
2018-04-22T21:23:36.953Z,68.20
2018-04-22T21:26:04.419Z,68.30
2018-04-22T21:28:31.902Z,69.40
2018-04-22T21:30:59.305Z,67.70
2018-04-22T21:33:26.753Z,65.30
2018-04-22T21:35:54.207Z,64.70
2018-04-22T21:38:21.649Z,64.80
2018-04-22T21:40:49.122Z,64.40
2018-04-22T21:43:16.567Z,64.70
2018-04-22T21:45:44.046Z,65.00
2018-04-22T21:48:11.493Z,66.20
2018-04-22T21:50:38.946Z,68.90
2018-04-22T21:53:06.405Z,71.90
2018-04-22T21:55:33.872Z,73.90
2018-04-22T21:58:02.109Z,75.00
2018-04-22T22:00:29.549Z,76.40
2018-04-22T22:02:57.083Z,77.40
2018-04-22T22:05:24.540Z,78.70
2018-04-22T22:07:52.046Z,79.30
2018-04-22T22:10:19.493Z,80.10
2018-04-22T22:12:46.963Z,81.60
2018-04-22T22:15:14.403Z,83.80
2018-04-22T22:17:41.904Z,85.50
2018-04-22T22:20:10.035Z,86.00
2018-04-22T22:22:37.788Z,85.30
2018-04-22T22:25:05.225Z,85.10
2018-04-22T22:27:32.804Z,86.90
2018-04-22T22:30:00.328Z,87.90
2018-04-22T22:32:28.605Z,86.80
2018-04-22T22:34:57.334Z,88.30
2018-04-22T22:37:25.566Z,90.60
2018-04-22T22:39:53.002Z,90.20
2018-04-22T22:42:20.845Z,90.00
2018-04-22T22:44:48.326Z,90.00
2018-04-22T22:47:15.803Z,88.20
2018-04-22T22:49:43.388Z,90.80
2018-04-22T22:52:10.967Z,90.90
2018-04-22T22:54:39.159Z,92.00
2018-04-22T22:57:06.666Z,92.50
2018-04-22T22:59:34.381Z,92.70
2018-04-22T23:02:02.145Z,92.10
2018-04-22T23:04:29.627Z,93.10
2018-04-22T23:06:58.112Z,92.90
2018-04-22T23:09:26.351Z,93.90
2018-04-22T23:11:53.813Z,93.90
2018-04-22T23:14:21.322Z,93.50
2018-04-22T23:16:49.551Z,93.50
2018-04-22T23:19:16.999Z,93.60
2018-04-22T23:21:44.501Z,92.40
2018-04-22T23:24:12.000Z,92.30
2018-04-22T23:26:39.482Z,92.00
2018-04-22T23:29:06.948Z,93.00
2018-04-22T23:31:34.435Z,93.20
2018-04-22T23:34:01.934Z,93.20
2018-04-22T23:36:29.408Z,92.50
2018-04-22T23:38:56.920Z,92.60
2018-04-22T23:41:24.404Z,92.90
2018-04-22T23:43:51.889Z,93.40
2018-04-22T23:46:19.363Z,93.20
2018-04-22T23:48:46.851Z,91.60
2018-04-22T23:51:15.102Z,93.60
2018-04-22T23:53:42.606Z,93.60
2018-04-22T23:56:10.073Z,93.30
2018-04-22T23:58:37.583Z,93.80
